sensor_id;sensor_type;location;lat;lon;timestamp;P1;durP1;ratioP1;P2;durP2;ratioP2
46689;SDS011;32423;45.398;10.874;2023-01-16T12:39:06;17.40;;;10.15;;
46689;SDS011;32423;45.398;10.874;2023-01-16T12:54:58;16.83;;;10.48;;
46689;SDS011;32423;45.398;10.874;2023-01-16T12:57:57;15.95;;;9.45;;
46689;SDS011;32423;45.398;10.874;2023-01-16T13:01:02;13.68;;;8.40;;
46689;SDS011;32423;45.398;10.874;2023-01-16T13:07:02;17.20;;;8.30;;
46689;SDS011;32423;45.398;10.874;2023-01-16T13:09:56;12.95;;;8.70;;
46689;SDS011;32423;45.398;10.874;2023-01-16T13:13:12;14.10;;;7.32;;
46689;SDS011;32423;45.398;10.874;2023-01-16T13:16:10;13.18;;;8.02;;
46689;SDS011;32423;45.398;10.874;2023-01-16T13:28:30;22.30;;;9.50;;
46689;SDS011;32423;45.398;10.874;2023-01-16T13:31:30;14.68;;;8.65;;
46689;SDS011;32423;45.398;10.874;2023-01-16T13:34:33;13.85;;;8.15;;
46689;SDS011;32423;45.398;10.874;2023-01-16T13:37:28;13.73;;;8.07;;
46689;SDS011;32423;45.398;10.874;2023-01-16T13:43:29;11.85;;;7.68;;
46689;SDS011;32423;45.398;10.874;2023-01-16T13:46:36;15.70;;;7.75;;
46689;SDS011;32423;45.398;10.874;2023-01-16T13:49:22;9.52;;;6.55;;
46689;SDS011;32423;45.398;10.874;2023-01-16T13:52:16;11.80;;;7.55;;
46689;SDS011;32423;45.398;10.874;2023-01-16T13:55:04;10.32;;;5.45;;
46689;SDS011;32423;45.398;10.874;2023-01-16T13:57:50;10.25;;;6.80;;
46689;SDS011;32423;45.398;10.874;2023-01-16T14:00:39;8.93;;;5.90;;
46689;SDS011;32423;45.398;10.874;2023-01-16T14:03:28;9.07;;;6.18;;
46689;SDS011;32423;45.398;10.874;2023-01-16T14:06:18;7.38;;;4.97;;
46689;SDS011;32423;45.398;10.874;2023-01-16T14:12:17;6.65;;;4.40;;
46689;SDS011;32423;45.398;10.874;2023-01-16T14:15:18;7.68;;;4.45;;
46689;SDS011;32423;45.398;10.874;2023-01-16T14:18:23;5.93;;;3.63;;
46689;SDS011;32423;45.398;10.874;2023-01-16T14:21:24;5.15;;;3.85;;
46689;SDS011;32423;45.398;10.874;2023-01-16T14:24:15;6.65;;;4.10;;
46689;SDS011;32423;45.398;10.874;2023-01-16T14:27:03;6.70;;;3.85;;
46689;SDS011;32423;45.398;10.874;2023-01-16T14:29:49;6.63;;;3.72;;
46689;SDS011;32423;45.398;10.874;2023-01-16T14:32:43;5.90;;;4.30;;
46689;SDS011;32423;45.398;10.874;2023-01-16T14:35:40;6.15;;;4.05;;
46689;SDS011;32423;45.398;10.874;2023-01-16T14:38:29;8.48;;;4.40;;
46689;SDS011;32423;45.398;10.874;2023-01-16T14:41:19;5.97;;;3.83;;
46689;SDS011;32423;45.398;10.874;2023-01-16T14:44:29;6.65;;;4.10;;
46689;SDS011;32423;45.398;10.874;2023-01-16T14:47:33;5.78;;;4.55;;
46689;SDS011;32423;45.398;10.874;2023-01-16T14:50:42;10.13;;;3.72;;
46689;SDS011;32423;45.398;10.874;2023-01-16T14:54:00;6.22;;;4.45;;
46689;SDS011;32423;45.398;10.874;2023-01-16T15:00:06;8.85;;;4.90;;
46689;SDS011;32423;45.398;10.874;2023-01-16T15:03:00;5.53;;;4.05;;
46689;SDS011;32423;45.398;10.874;2023-01-16T15:05:52;7.72;;;5.15;;
46689;SDS011;32423;45.398;10.874;2023-01-16T15:08:42;11.30;;;7.57;;
46689;SDS011;32423;45.398;10.874;2023-01-16T15:11:36;11.07;;;5.07;;
46689;SDS011;32423;45.398;10.874;2023-01-16T15:14:29;6.22;;;4.38;;
46689;SDS011;32423;45.398;10.874;2023-01-16T15:17:20;5.28;;;4.22;;
46689;SDS011;32423;45.398;10.874;2023-01-16T15:20:30;11.47;;;3.77;;
46689;SDS011;32423;45.398;10.874;2023-01-16T15:23:38;6.93;;;4.00;;
46689;SDS011;32423;45.398;10.874;2023-01-16T15:29:31;6.22;;;4.00;;
46689;SDS011;32423;45.398;10.874;2023-01-16T15:32:25;6.10;;;3.90;;
46689;SDS011;32423;45.398;10.874;2023-01-16T15:35:14;6.05;;;2.72;;
46689;SDS011;32423;45.398;10.874;2023-01-16T15:38:02;7.35;;;4.32;;
46689;SDS011;32423;45.398;10.874;2023-01-16T15:40:51;6.07;;;3.53;;
46689;SDS011;32423;45.398;10.874;2023-01-16T15:43:39;5.57;;;3.63;;
46689;SDS011;32423;45.398;10.874;2023-01-16T15:49:46;5.33;;;3.50;;
46689;SDS011;32423;45.398;10.874;2023-01-16T15:52:33;5.78;;;3.95;;
46689;SDS011;32423;45.398;10.874;2023-01-16T15:55:26;4.30;;;3.30;;
46689;SDS011;32423;45.398;10.874;2023-01-16T15:58:14;4.82;;;3.40;;
46689;SDS011;32423;45.398;10.874;2023-01-16T16:01:04;6.65;;;3.05;;
46689;SDS011;32423;45.398;10.874;2023-01-16T16:03:50;3.92;;;3.22;;
46689;SDS011;32423;45.398;10.874;2023-01-16T16:06:36;4.63;;;2.85;;
46689;SDS011;32423;45.398;10.874;2023-01-16T16:09:24;4.10;;;3.30;;
46689;SDS011;32423;45.398;10.874;2023-01-16T16:12:11;7.38;;;3.83;;
46689;SDS011;32423;45.398;10.874;2023-01-16T16:15:16;4.80;;;3.05;;
46689;SDS011;32423;45.398;10.874;2023-01-16T16:18:24;7.55;;;4.35;;
46689;SDS011;32423;45.398;10.874;2023-01-16T16:21:09;5.50;;;4.20;;
46689;SDS011;32423;45.398;10.874;2023-01-16T16:24:05;6.55;;;4.10;;
46689;SDS011;32423;45.398;10.874;2023-01-16T16:26:55;7.25;;;3.40;;
46689;SDS011;32423;45.398;10.874;2023-01-16T16:29:40;5.68;;;3.00;;
46689;SDS011;32423;45.398;10.874;2023-01-16T16:32:25;6.32;;;3.75;;
46689;SDS011;32423;45.398;10.874;2023-01-16T16:38:16;7.70;;;4.07;;
46689;SDS011;32423;45.398;10.874;2023-01-16T16:41:31;5.85;;;4.20;;
46689;SDS011;32423;45.398;10.874;2023-01-16T16:44:20;7.13;;;4.93;;
46689;SDS011;32423;45.398;10.874;2023-01-16T16:47:24;5.50;;;4.28;;
46689;SDS011;32423;45.398;10.874;2023-01-16T16:53:16;5.28;;;4.20;;
46689;SDS011;32423;45.398;10.874;2023-01-16T16:56:08;4.93;;;4.05;;
46689;SDS011;32423;45.398;10.874;2023-01-16T16:58:57;6.13;;;4.10;;
46689;SDS011;32423;45.398;10.874;2023-01-16T17:01:42;4.10;;;3.72;;
46689;SDS011;32423;45.398;10.874;2023-01-16T17:04:31;6.40;;;4.18;;
46689;SDS011;32423;45.398;10.874;2023-01-16T17:07:15;4.30;;;3.15;;
46689;SDS011;32423;45.398;10.874;2023-01-16T17:10:00;4.32;;;3.42;;
46689;SDS011;32423;45.398;10.874;2023-01-16T17:12:45;2.85;;;2.20;;
46689;SDS011;32423;45.398;10.874;2023-01-16T17:18:14;3.65;;;2.97;;
46689;SDS011;32423;45.398;10.874;2023-01-16T17:21:00;3.70;;;2.83;;
46689;SDS011;32423;45.398;10.874;2023-01-16T17:26:31;4.53;;;1.90;;
46689;SDS011;32423;45.398;10.874;2023-01-16T17:29:16;3.15;;;2.40;;
46689;SDS011;32423;45.398;10.874;2023-01-16T17:32:02;3.65;;;2.38;;
46689;SDS011;32423;45.398;10.874;2023-01-16T17:34:50;3.33;;;1.90;;
46689;SDS011;32423;45.398;10.874;2023-01-16T17:37:34;2.78;;;2.00;;
46689;SDS011;32423;45.398;10.874;2023-01-16T17:40:19;5.43;;;1.60;;
46689;SDS011;32423;45.398;10.874;2023-01-16T17:43:04;2.25;;;1.90;;
46689;SDS011;32423;45.398;10.874;2023-01-16T17:46:08;9.20;;;1.83;;
46689;SDS011;32423;45.398;10.874;2023-01-16T17:48:56;3.35;;;2.70;;
46689;SDS011;32423;45.398;10.874;2023-01-16T17:51:41;1.63;;;1.38;;
46689;SDS011;32423;45.398;10.874;2023-01-16T17:54:26;2.22;;;1.60;;
46689;SDS011;32423;45.398;10.874;2023-01-16T17:57:30;3.20;;;1.90;;
46689;SDS011;32423;45.398;10.874;2023-01-16T18:00:17;1.77;;;1.65;;
46689;SDS011;32423;45.398;10.874;2023-01-16T18:03:02;4.60;;;1.85;;
46689;SDS011;32423;45.398;10.874;2023-01-16T18:05:51;5.47;;;1.88;;
46689;SDS011;32423;45.398;10.874;2023-01-16T18:08:35;3.30;;;1.45;;
46689;SDS011;32423;45.398;10.874;2023-01-16T18:11:20;2.40;;;1.48;;
46689;SDS011;32423;45.398;10.874;2023-01-16T18:14:25;2.78;;;1.80;;
46689;SDS011;32423;45.398;10.874;2023-01-16T18:17:29;2.00;;;1.75;;
46689;SDS011;32423;45.398;10.874;2023-01-16T18:20:14;2.92;;;1.67;;
46689;SDS011;32423;45.398;10.874;2023-01-16T18:25:47;3.15;;;2.03;;
46689;SDS011;32423;45.398;10.874;2023-01-16T18:28:33;3.97;;;2.50;;
46689;SDS011;32423;45.398;10.874;2023-01-16T18:31:18;3.50;;;2.25;;
46689;SDS011;32423;45.398;10.874;2023-01-16T18:34:07;3.85;;;2.92;;
46689;SDS011;32423;45.398;10.874;2023-01-16T18:36:52;2.70;;;1.75;;
46689;SDS011;32423;45.398;10.874;2023-01-16T18:39:36;3.08;;;2.03;;
46689;SDS011;32423;45.398;10.874;2023-01-16T18:42:40;1.88;;;1.60;;
46689;SDS011;32423;45.398;10.874;2023-01-16T18:45:43;3.25;;;2.05;;
46689;SDS011;32423;45.398;10.874;2023-01-16T18:48:47;2.42;;;1.85;;
46689;SDS011;32423;45.398;10.874;2023-01-16T18:51:51;2.97;;;2.10;;
46689;SDS011;32423;45.398;10.874;2023-01-16T18:54:54;7.63;;;2.45;;
46689;SDS011;32423;45.398;10.874;2023-01-16T18:58:14;3.75;;;2.00;;
46689;SDS011;32423;45.398;10.874;2023-01-16T19:04:24;3.63;;;1.80;;
46689;SDS011;32423;45.398;10.874;2023-01-16T19:07:12;2.50;;;1.95;;
46689;SDS011;32423;45.398;10.874;2023-01-16T19:10:05;3.47;;;2.63;;
46689;SDS011;32423;45.398;10.874;2023-01-16T19:12:51;3.40;;;2.80;;
46689;SDS011;32423;45.398;10.874;2023-01-16T19:15:36;4.47;;;2.22;;
46689;SDS011;32423;45.398;10.874;2023-01-16T19:18:40;3.97;;;2.85;;
46689;SDS011;32423;45.398;10.874;2023-01-16T19:24:12;3.83;;;2.97;;
46689;SDS011;32423;45.398;10.874;2023-01-16T19:26:58;8.13;;;4.15;;
46689;SDS011;32423;45.398;10.874;2023-01-16T19:29:43;5.30;;;3.28;;
46689;SDS011;32423;45.398;10.874;2023-01-16T19:32:30;4.35;;;2.83;;
46689;SDS011;32423;45.398;10.874;2023-01-16T19:35:15;2.85;;;2.15;;
46689;SDS011;32423;45.398;10.874;2023-01-16T19:37:59;3.72;;;2.00;;
46689;SDS011;32423;45.398;10.874;2023-01-16T19:40:44;2.63;;;2.03;;
46689;SDS011;32423;45.398;10.874;2023-01-16T19:43:29;6.07;;;3.85;;
46689;SDS011;32423;45.398;10.874;2023-01-16T19:46:33;7.00;;;4.97;;
46689;SDS011;32423;45.398;10.874;2023-01-16T19:49:27;3.15;;;2.58;;
46689;SDS011;32423;45.398;10.874;2023-01-16T19:52:12;4.18;;;2.55;;
46689;SDS011;32423;45.398;10.874;2023-01-16T19:54:57;2.78;;;2.22;;
46689;SDS011;32423;45.398;10.874;2023-01-16T19:57:41;4.05;;;2.17;;
46689;SDS011;32423;45.398;10.874;2023-01-16T20:00:26;4.65;;;3.47;;
46689;SDS011;32423;45.398;10.874;2023-01-16T20:03:11;8.32;;;4.72;;
46689;SDS011;32423;45.398;10.874;2023-01-16T20:05:56;8.82;;;3.30;;
46689;SDS011;32423;45.398;10.874;2023-01-16T20:08:41;6.13;;;4.25;;
46689;SDS011;32423;45.398;10.874;2023-01-16T20:11:26;13.63;;;9.77;;
46689;SDS011;32423;45.398;10.874;2023-01-16T20:14:30;11.20;;;8.15;;
46689;SDS011;32423;45.398;10.874;2023-01-16T20:17:15;32.15;;;19.90;;
46689;SDS011;32423;45.398;10.874;2023-01-16T20:20:00;19.77;;;12.43;;
46689;SDS011;32423;45.398;10.874;2023-01-16T20:22:47;14.52;;;10.88;;
46689;SDS011;32423;45.398;10.874;2023-01-16T20:25:32;10.85;;;7.50;;
46689;SDS011;32423;45.398;10.874;2023-01-16T20:28:20;13.88;;;8.27;;
46689;SDS011;32423;45.398;10.874;2023-01-16T20:33:51;8.77;;;7.10;;
46689;SDS011;32423;45.398;10.874;2023-01-16T20:36:36;9.98;;;7.20;;
46689;SDS011;32423;45.398;10.874;2023-01-16T20:39:22;8.25;;;5.72;;
46689;SDS011;32423;45.398;10.874;2023-01-16T20:42:07;13.45;;;6.40;;
46689;SDS011;32423;45.398;10.874;2023-01-16T20:45:12;11.75;;;7.13;;
46689;SDS011;32423;45.398;10.874;2023-01-16T20:48:16;11.50;;;7.85;;
46689;SDS011;32423;45.398;10.874;2023-01-16T20:51:05;10.77;;;6.60;;
46689;SDS011;32423;45.398;10.874;2023-01-16T20:53:52;17.90;;;9.68;;
46689;SDS011;32423;45.398;10.874;2023-01-16T20:59:24;6.05;;;4.40;;
46689;SDS011;32423;45.398;10.874;2023-01-16T21:02:10;6.35;;;4.50;;
46689;SDS011;32423;45.398;10.874;2023-01-16T21:04:58;5.65;;;4.65;;
46689;SDS011;32423;45.398;10.874;2023-01-16T21:07:42;14.15;;;6.10;;
46689;SDS011;32423;45.398;10.874;2023-01-16T21:10:27;5.93;;;4.00;;
46689;SDS011;32423;45.398;10.874;2023-01-16T21:13:12;5.18;;;4.10;;
46689;SDS011;32423;45.398;10.874;2023-01-16T21:16:15;6.55;;;3.72;;
46689;SDS011;32423;45.398;10.874;2023-01-16T21:19:18;5.57;;;4.05;;
46689;SDS011;32423;45.398;10.874;2023-01-16T21:22:23;6.03;;;4.13;;
46689;SDS011;32423;45.398;10.874;2023-01-16T21:25:09;5.13;;;4.00;;
46689;SDS011;32423;45.398;10.874;2023-01-16T21:27:55;7.20;;;4.28;;
46689;SDS011;32423;45.398;10.874;2023-01-16T21:30:42;5.65;;;3.92;;
46689;SDS011;32423;45.398;10.874;2023-01-16T21:33:27;6.30;;;3.63;;
46689;SDS011;32423;45.398;10.874;2023-01-16T21:36:12;6.13;;;4.43;;
46689;SDS011;32423;45.398;10.874;2023-01-16T21:41:42;6.82;;;4.53;;
46689;SDS011;32423;45.398;10.874;2023-01-16T21:44:47;5.60;;;4.07;;
46689;SDS011;32423;45.398;10.874;2023-01-16T21:47:59;6.65;;;5.07;;
46689;SDS011;32423;45.398;10.874;2023-01-16T21:50:50;7.85;;;5.40;;
46689;SDS011;32423;45.398;10.874;2023-01-16T21:53:35;8.40;;;4.35;;
46689;SDS011;32423;45.398;10.874;2023-01-16T21:56:21;4.68;;;4.03;;
46689;SDS011;32423;45.398;10.874;2023-01-16T21:59:07;7.45;;;4.93;;
46689;SDS011;32423;45.398;10.874;2023-01-16T22:01:53;6.18;;;4.38;;
46689;SDS011;32423;45.398;10.874;2023-01-16T22:04:39;5.57;;;4.43;;
46689;SDS011;32423;45.398;10.874;2023-01-16T22:07:26;6.05;;;4.97;;
46689;SDS011;32423;45.398;10.874;2023-01-16T22:10:11;6.18;;;4.32;;
46689;SDS011;32423;45.398;10.874;2023-01-16T22:12:57;5.78;;;4.03;;
46689;SDS011;32423;45.398;10.874;2023-01-16T22:16:01;9.05;;;3.70;;
46689;SDS011;32423;45.398;10.874;2023-01-16T22:19:05;5.60;;;4.10;;
46689;SDS011;32423;45.398;10.874;2023-01-16T22:22:07;4.45;;;3.50;;
46689;SDS011;32423;45.398;10.874;2023-01-16T22:24:53;4.55;;;3.08;;
46689;SDS011;32423;45.398;10.874;2023-01-16T22:27:38;4.53;;;3.83;;
46689;SDS011;32423;45.398;10.874;2023-01-16T22:30:23;4.32;;;3.70;;
46689;SDS011;32423;45.398;10.874;2023-01-16T22:33:09;5.07;;;3.53;;
46689;SDS011;32423;45.398;10.874;2023-01-16T22:35:55;4.18;;;2.72;;
46689;SDS011;32423;45.398;10.874;2023-01-16T22:38:45;6.50;;;4.13;;
46689;SDS011;32423;45.398;10.874;2023-01-16T22:44:15;5.53;;;4.10;;
46689;SDS011;32423;45.398;10.874;2023-01-16T22:47:18;5.75;;;3.83;;
46689;SDS011;32423;45.398;10.874;2023-01-16T22:50:05;9.48;;;4.65;;
46689;SDS011;32423;45.398;10.874;2023-01-16T22:52:50;5.97;;;4.10;;
46689;SDS011;32423;45.398;10.874;2023-01-16T22:55:35;7.07;;;4.93;;
46689;SDS011;32423;45.398;10.874;2023-01-16T22:58:21;7.38;;;4.88;;
46689;SDS011;32423;45.398;10.874;2023-01-16T23:01:10;10.55;;;5.90;;
46689;SDS011;32423;45.398;10.874;2023-01-16T23:03:58;12.80;;;7.22;;
46689;SDS011;32423;45.398;10.874;2023-01-16T23:06:45;18.05;;;8.98;;
46689;SDS011;32423;45.398;10.874;2023-01-16T23:09:30;18.48;;;11.70;;
46689;SDS011;32423;45.398;10.874;2023-01-16T23:12:15;14.18;;;9.10;;
46689;SDS011;32423;45.398;10.874;2023-01-16T23:15:01;18.35;;;10.65;;
46689;SDS011;32423;45.398;10.874;2023-01-16T23:17:47;16.42;;;10.82;;
46689;SDS011;32423;45.398;10.874;2023-01-16T23:20:36;16.10;;;9.43;;
46689;SDS011;32423;45.398;10.874;2023-01-16T23:23:24;14.13;;;8.57;;
46689;SDS011;32423;45.398;10.874;2023-01-16T23:26:13;17.88;;;10.25;;
46689;SDS011;32423;45.398;10.874;2023-01-16T23:29:01;17.45;;;10.85;;
46689;SDS011;32423;45.398;10.874;2023-01-16T23:31:49;19.00;;;10.90;;
46689;SDS011;32423;45.398;10.874;2023-01-16T23:34:38;17.23;;;8.77;;
46689;SDS011;32423;45.398;10.874;2023-01-16T23:37:25;19.13;;;11.57;;
46689;SDS011;32423;45.398;10.874;2023-01-16T23:40:10;20.83;;;12.13;;
46689;SDS011;32423;45.398;10.874;2023-01-16T23:42:59;28.40;;;13.48;;
46689;SDS011;32423;45.398;10.874;2023-01-16T23:46:02;22.70;;;14.23;;
46689;SDS011;32423;45.398;10.874;2023-01-16T23:51:37;35.47;;;18.38;;
46689;SDS011;32423;45.398;10.874;2023-01-16T23:54:22;38.80;;;19.73;;
46689;SDS011;32423;45.398;10.874;2023-01-16T23:57:14;29.15;;;15.80;;
